createdAt,value
2023-03-16T00:00:09.715Z,3.42
2023-03-16T00:05:33.498Z,3.03
2023-03-16T00:10:58.713Z,2.55
2023-03-16T00:16:22.728Z,3.08
2023-03-16T00:21:46.550Z,2.45
2023-03-16T00:27:14.920Z,3.08
2023-03-16T00:32:41.872Z,2.95
2023-03-16T00:38:05.622Z,2.92
2023-03-16T00:43:31.264Z,3.33
2023-03-16T00:48:55.027Z,2.35
2023-03-16T00:54:19.052Z,1.95
2023-03-16T00:59:44.227Z,2.95
2023-03-16T01:05:09.514Z,2.72
2023-03-16T01:10:33.247Z,2.95
2023-03-16T01:15:58.370Z,3.25
2023-03-16T01:21:22.951Z,3.20
2023-03-16T01:26:47.355Z,2.78
2023-03-16T01:32:13.304Z,1.83
2023-03-16T01:37:37.622Z,2.10
2023-03-16T01:43:22.394Z,2.88
2023-03-16T01:48:53.126Z,2.55
2023-03-16T01:54:24.869Z,2.85
2023-03-16T01:59:51.958Z,3.00
2023-03-16T02:05:23.153Z,3.05
2023-03-16T02:10:47.981Z,3.25
2023-03-16T02:16:14.746Z,3.22
2023-03-16T02:21:47.310Z,3.13
2023-03-16T02:27:14.128Z,2.88
2023-03-16T02:32:41.761Z,3.55
2023-03-16T02:38:05.642Z,3.53
2023-03-16T02:43:38.335Z,3.15
2023-03-16T02:49:26.819Z,3.20
2023-03-16T02:54:50.855Z,2.92
2023-03-16T03:00:18.421Z,4.18
2023-03-16T03:05:46.880Z,3.50
2023-03-16T03:11:10.889Z,2.38
2023-03-16T03:16:34.825Z,3.58
2023-03-16T03:22:00.153Z,3.50
2023-03-16T03:27:27.634Z,3.38
2023-03-16T03:32:53.016Z,3.20
2023-03-16T03:38:19.430Z,2.42
2023-03-16T03:43:43.481Z,1.98
2023-03-16T03:49:12.394Z,3.50
2023-03-16T03:54:38.240Z,3.92
2023-03-16T04:00:11.495Z,4.07
2023-03-16T04:05:39.350Z,3.28
2023-03-16T04:11:06.437Z,2.35
2023-03-16T04:16:30.893Z,2.45
2023-03-16T04:21:54.997Z,3.03
2023-03-16T04:27:21.236Z,3.25
2023-03-16T04:32:45.188Z,3.78
2023-03-16T04:38:13.042Z,3.58
2023-03-16T04:43:49.060Z,3.88
2023-03-16T04:49:17.201Z,4.70
2023-03-16T04:54:42.433Z,3.05
2023-03-16T05:00:15.713Z,4.32
2023-03-16T05:05:48.304Z,3.75
2023-03-16T05:11:12.603Z,4.05
2023-03-16T05:16:47.424Z,3.63
2023-03-16T05:22:11.782Z,4.15
2023-03-16T05:27:43.784Z,4.45
2023-03-16T05:33:11.434Z,4.20
2023-03-16T05:38:36.879Z,4.50
2023-03-16T05:44:01.943Z,3.85
2023-03-16T05:49:37.415Z,3.92
2023-03-16T05:55:07.087Z,3.33
2023-03-16T06:00:32.031Z,3.92
2023-03-16T06:06:10.035Z,5.25
2023-03-16T06:11:44.978Z,4.13
2023-03-16T06:17:11.706Z,9.25
2023-03-16T06:22:39.322Z,4.35
2023-03-16T06:28:03.313Z,4.75
2023-03-16T06:33:27.334Z,4.45
2023-03-16T06:38:52.718Z,3.85
2023-03-16T06:44:27.053Z,4.82
2023-03-16T06:49:59.448Z,5.03
2023-03-16T06:55:25.084Z,4.35
2023-03-16T07:00:49.128Z,4.40
2023-03-16T07:06:13.150Z,4.57
2023-03-16T07:11:38.295Z,3.90
2023-03-16T07:17:02.760Z,3.80
2023-03-16T07:22:26.954Z,4.75
2023-03-16T07:27:52.392Z,4.20
2023-03-16T07:33:22.502Z,4.83
2023-03-16T07:38:46.371Z,4.47
2023-03-16T07:44:12.670Z,5.30
2023-03-16T07:49:36.814Z,5.03
2023-03-16T07:55:00.644Z,4.00
2023-03-16T08:00:26.125Z,4.68
2023-03-16T08:05:49.957Z,4.82
2023-03-16T08:11:13.825Z,4.75
2023-03-16T08:16:47.264Z,4.63
2023-03-16T08:22:12.541Z,4.45
2023-03-16T08:27:40.327Z,3.75
2023-03-16T08:33:06.685Z,3.92
2023-03-16T08:38:30.541Z,4.57
2023-03-16T08:43:58.892Z,4.45
2023-03-16T08:49:24.179Z,5.03
2023-03-16T08:55:03.573Z,3.85
2023-03-16T09:00:28.914Z,4.53
2023-03-16T09:05:54.181Z,3.28
2023-03-16T09:11:19.829Z,3.78
2023-03-16T09:16:44.379Z,2.88
2023-03-16T09:22:10.360Z,3.30
2023-03-16T09:27:35.110Z,2.88
2023-03-16T09:32:58.967Z,3.30
2023-03-16T09:38:26.374Z,3.35
2023-03-16T09:44:01.412Z,3.08
2023-03-16T09:49:28.484Z,2.92
2023-03-16T09:54:59.488Z,3.55
2023-03-16T10:00:26.302Z,3.10
2023-03-16T10:05:57.257Z,3.33
2023-03-16T10:11:32.148Z,2.80
2023-03-16T10:17:01.272Z,2.47
2023-03-16T10:22:27.379Z,3.30
2023-03-16T10:27:53.073Z,3.80
2023-03-16T10:33:25.758Z,3.38
2023-03-16T10:38:55.228Z,3.53
2023-03-16T10:44:25.973Z,3.10
2023-03-16T10:49:51.385Z,3.67
2023-03-16T10:55:21.687Z,3.10
2023-03-16T11:00:47.877Z,3.20
2023-03-16T11:06:22.601Z,2.00
2023-03-16T11:11:49.682Z,2.50
2023-03-16T11:17:18.016Z,2.38
2023-03-16T11:22:45.680Z,2.53
2023-03-16T11:28:17.028Z,2.42
2023-03-16T11:33:42.610Z,2.92
2023-03-16T11:39:16.334Z,2.33
2023-03-16T11:44:47.114Z,2.53
2023-03-16T11:50:18.660Z,2.15
2023-03-16T11:55:51.298Z,2.08
2023-03-16T12:01:25.697Z,1.88
2023-03-16T12:07:09.338Z,1.80
2023-03-16T12:12:48.886Z,1.95
2023-03-16T12:18:18.166Z,1.60
2023-03-16T12:23:50.667Z,2.10
2023-03-16T12:29:23.128Z,2.00
2023-03-16T12:34:54.592Z,1.70
2023-03-16T12:45:58.000Z,1.60
2023-03-16T12:51:21.810Z,1.77
2023-03-16T12:56:49.329Z,1.38
2023-03-16T13:02:18.161Z,1.25
2023-03-16T13:07:48.544Z,1.90
2023-03-16T13:13:16.155Z,1.30
2023-03-16T13:18:45.141Z,1.67
2023-03-16T13:24:28.522Z,1.50
2023-03-16T13:29:59.491Z,1.98
2023-03-16T13:35:28.043Z,1.52
2023-03-16T13:40:54.424Z,1.50
2023-03-16T13:46:22.596Z,1.70
2023-03-16T13:51:48.478Z,1.30
2023-03-16T13:57:14.214Z,1.73
2023-03-16T14:02:43.583Z,1.40
2023-03-16T14:08:16.843Z,1.20
2023-03-16T14:13:40.723Z,1.38
2023-03-16T14:19:09.296Z,1.23
2023-03-16T14:24:36.557Z,1.60
2023-03-16T14:30:02.444Z,1.30
2023-03-16T14:35:30.794Z,1.20
2023-03-16T14:40:56.679Z,1.42
2023-03-16T14:46:29.673Z,1.55
2023-03-16T14:51:59.210Z,1.67
2023-03-16T14:57:23.502Z,1.80
2023-03-16T15:02:56.214Z,1.20
2023-03-16T15:08:26.352Z,1.83
2023-03-16T15:14:04.273Z,1.48
2023-03-16T15:19:28.069Z,1.67
2023-03-16T15:24:53.413Z,1.70
2023-03-16T15:30:18.826Z,1.50
2023-03-16T15:35:43.283Z,1.95
2023-03-16T15:41:12.385Z,1.30
2023-03-16T15:46:36.577Z,1.30
2023-03-16T15:52:00.403Z,1.35
2023-03-16T15:57:25.745Z,1.70
2023-03-16T16:02:49.514Z,1.30
2023-03-16T16:08:13.301Z,1.40
2023-03-16T16:13:44.718Z,1.65
2023-03-16T16:19:11.610Z,1.52
2023-03-16T16:24:35.570Z,1.73
2023-03-16T16:30:00.785Z,1.42
2023-03-16T16:35:27.022Z,1.33
2023-03-16T16:40:51.951Z,1.65
2023-03-16T16:46:19.813Z,1.63
2023-03-16T16:51:43.892Z,1.92
2023-03-16T16:57:18.293Z,2.05
2023-03-16T17:02:46.462Z,1.88
2023-03-16T17:08:12.477Z,1.75
2023-03-16T17:13:40.166Z,1.90
2023-03-16T17:19:07.100Z,3.35
2023-03-16T17:24:31.372Z,2.15
2023-03-16T17:29:56.026Z,2.03
2023-03-16T17:35:21.669Z,2.00
2023-03-16T17:40:45.818Z,2.00
2023-03-16T17:46:11.490Z,2.25
2023-03-16T17:51:40.292Z,2.63
2023-03-16T17:57:04.486Z,2.20
2023-03-16T18:02:41.660Z,2.38
2023-03-16T18:08:16.166Z,2.78
2023-03-16T18:13:41.682Z,2.97
2023-03-16T18:19:18.700Z,2.70
2023-03-16T18:24:44.987Z,2.85
2023-03-16T18:30:11.257Z,3.30
2023-03-16T18:35:37.853Z,2.58
2023-03-16T18:41:14.413Z,3.25
2023-03-16T18:46:39.140Z,3.22
2023-03-16T18:52:03.092Z,2.92
2023-03-16T18:57:31.786Z,6.80
2023-03-16T19:03:01.412Z,4.13
2023-03-16T19:08:26.463Z,5.05
2023-03-16T19:13:54.688Z,3.97
2023-03-16T19:19:21.327Z,5.28
2023-03-16T19:24:48.208Z,6.40
2023-03-16T19:30:23.248Z,6.25
2023-03-16T19:35:51.854Z,5.35
2023-03-16T19:41:23.879Z,4.50
2023-03-16T19:46:53.877Z,3.80
2023-03-16T19:52:17.686Z,5.20
2023-03-16T19:57:41.484Z,4.32
2023-03-16T20:03:07.500Z,5.57
2023-03-16T20:08:31.528Z,3.85
2023-03-16T20:13:56.700Z,3.95
2023-03-16T20:19:23.009Z,4.03
2023-03-16T20:24:48.553Z,3.90
2023-03-16T20:30:17.032Z,4.28
2023-03-16T20:35:42.219Z,3.20
2023-03-16T20:41:14.504Z,4.10
2023-03-16T20:46:41.265Z,3.38
2023-03-16T20:52:16.363Z,3.70
2023-03-16T20:57:42.512Z,3.75
2023-03-16T21:03:14.312Z,4.53
2023-03-16T21:08:39.467Z,3.38
2023-03-16T21:14:03.587Z,4.00
2023-03-16T21:19:27.661Z,4.55
2023-03-16T21:24:53.177Z,3.60
2023-03-16T21:30:26.968Z,3.60
2023-03-16T21:35:50.793Z,3.45
2023-03-16T21:41:16.770Z,3.97
2023-03-16T21:46:40.558Z,4.57
2023-03-16T21:52:04.434Z,4.82
2023-03-16T21:57:29.561Z,5.40
2023-03-16T22:02:55.628Z,5.30
2023-03-16T22:08:21.445Z,5.70
2023-03-16T22:13:46.643Z,5.88
2023-03-16T22:19:14.662Z,5.60
2023-03-16T22:24:38.953Z,4.72
2023-03-16T22:30:04.576Z,4.85
2023-03-16T22:35:32.693Z,5.22
2023-03-16T22:40:56.530Z,4.03
2023-03-16T22:46:24.420Z,3.92
2023-03-16T22:51:48.551Z,3.30
2023-03-16T22:57:14.959Z,3.40
2023-03-16T23:02:40.678Z,3.75
2023-03-16T23:08:13.877Z,2.88
2023-03-16T23:13:37.726Z,3.50
2023-03-16T23:19:04.373Z,3.22
2023-03-16T23:24:29.629Z,3.65
2023-03-16T23:29:53.347Z,3.10
2023-03-16T23:35:21.839Z,3.65
2023-03-16T23:40:45.686Z,3.60
2023-03-16T23:46:11.875Z,3.10
2023-03-16T23:51:39.106Z,3.35
2023-03-16T23:57:02.829Z,2.92
